sensor_id;sensor_type;location;lat;lon;timestamp;P1;durP1;ratioP1;P2;durP2;ratioP2
7365;SDS011;3723;52.220;8.792;2023-08-30T00:00:23;22.03;;;2.43;;
7365;SDS011;3723;52.220;8.792;2023-08-30T00:02:50;21.17;;;1.77;;
7365;SDS011;3723;52.220;8.792;2023-08-30T00:05:17;21.77;;;1.80;;
7365;SDS011;3723;52.220;8.792;2023-08-30T00:07:51;21.40;;;1.80;;
7365;SDS011;3723;52.220;8.792;2023-08-30T00:10:30;26.23;;;2.37;;
7365;SDS011;3723;52.220;8.792;2023-08-30T00:12:59;21.40;;;2.00;;
7365;SDS011;3723;52.220;8.792;2023-08-30T00:15:27;21.83;;;2.00;;
7365;SDS011;3723;52.220;8.792;2023-08-30T00:17:54;22.97;;;2.97;;
7365;SDS011;3723;52.220;8.792;2023-08-30T00:20:36;26.30;;;5.20;;
7365;SDS011;3723;52.220;8.792;2023-08-30T00:23:10;25.93;;;3.47;;
7365;SDS011;3723;52.220;8.792;2023-08-30T00:31:53;24.07;;;3.30;;
7365;SDS011;3723;52.220;8.792;2023-08-30T00:34:20;24.63;;;4.27;;
7365;SDS011;3723;52.220;8.792;2023-08-30T00:36:47;23.17;;;3.60;;
7365;SDS011;3723;52.220;8.792;2023-08-30T00:39:14;24.23;;;3.93;;
7365;SDS011;3723;52.220;8.792;2023-08-30T00:41:41;24.40;;;4.10;;
7365;SDS011;3723;52.220;8.792;2023-08-30T00:44:08;25.00;;;4.53;;
7365;SDS011;3723;52.220;8.792;2023-08-30T00:46:37;25.53;;;4.77;;
7365;SDS011;3723;52.220;8.792;2023-08-30T00:49:04;23.20;;;3.67;;
7365;SDS011;3723;52.220;8.792;2023-08-30T00:51:31;22.73;;;3.40;;
7365;SDS011;3723;52.220;8.792;2023-08-30T00:53:59;23.33;;;4.00;;
7365;SDS011;3723;52.220;8.792;2023-08-30T00:56:26;23.20;;;4.43;;
7365;SDS011;3723;52.220;8.792;2023-08-30T00:58:54;23.63;;;4.30;;
7365;SDS011;3723;52.220;8.792;2023-08-30T01:01:21;21.30;;;2.37;;
7365;SDS011;3723;52.220;8.792;2023-08-30T01:03:50;23.23;;;3.90;;
7365;SDS011;3723;52.220;8.792;2023-08-30T01:06:17;22.60;;;2.63;;
7365;SDS011;3723;52.220;8.792;2023-08-30T01:08:44;20.90;;;2.20;;
7365;SDS011;3723;52.220;8.792;2023-08-30T01:11:11;23.07;;;3.37;;
7365;SDS011;3723;52.220;8.792;2023-08-30T01:13:46;21.83;;;2.70;;
7365;SDS011;3723;52.220;8.792;2023-08-30T01:16:16;21.97;;;2.50;;
7365;SDS011;3723;52.220;8.792;2023-08-30T01:18:45;24.70;;;2.83;;
7365;SDS011;3723;52.220;8.792;2023-08-30T01:21:19;24.77;;;4.37;;
7365;SDS011;3723;52.220;8.792;2023-08-30T01:23:53;24.47;;;3.80;;
7365;SDS011;3723;52.220;8.792;2023-08-30T01:26:26;25.03;;;3.80;;
7365;SDS011;3723;52.220;8.792;2023-08-30T01:29:04;23.90;;;3.07;;
7365;SDS011;3723;52.220;8.792;2023-08-30T01:31:32;27.37;;;5.83;;
7365;SDS011;3723;52.220;8.792;2023-08-30T01:34:01;28.17;;;7.07;;
7365;SDS011;3723;52.220;8.792;2023-08-30T01:36:30;27.53;;;6.00;;
7365;SDS011;3723;52.220;8.792;2023-08-30T01:38:58;29.53;;;6.90;;
7365;SDS011;3723;52.220;8.792;2023-08-30T01:41:26;30.93;;;7.73;;
7365;SDS011;3723;52.220;8.792;2023-08-30T01:43:55;26.90;;;4.77;;
7365;SDS011;3723;52.220;8.792;2023-08-30T01:46:25;30.33;;;7.00;;
7365;SDS011;3723;52.220;8.792;2023-08-30T01:48:53;25.90;;;5.17;;
7365;SDS011;3723;52.220;8.792;2023-08-30T01:51:21;22.17;;;2.60;;
7365;SDS011;3723;52.220;8.792;2023-08-30T01:53:51;25.77;;;4.40;;
7365;SDS011;3723;52.220;8.792;2023-08-30T01:56:18;27.37;;;5.87;;
7365;SDS011;3723;52.220;8.792;2023-08-30T01:58:45;28.57;;;6.37;;
7365;SDS011;3723;52.220;8.792;2023-08-30T02:01:12;28.83;;;6.00;;
7365;SDS011;3723;52.220;8.792;2023-08-30T02:03:43;24.73;;;4.03;;
7365;SDS011;3723;52.220;8.792;2023-08-30T02:06:11;27.03;;;3.97;;
7365;SDS011;3723;52.220;8.792;2023-08-30T02:08:45;26.10;;;4.03;;
7365;SDS011;3723;52.220;8.792;2023-08-30T02:11:19;23.57;;;3.27;;
7365;SDS011;3723;52.220;8.792;2023-08-30T02:13:49;28.40;;;6.23;;
7365;SDS011;3723;52.220;8.792;2023-08-30T02:16:18;26.20;;;4.83;;
7365;SDS011;3723;52.220;8.792;2023-08-30T02:18:47;25.97;;;4.83;;
7365;SDS011;3723;52.220;8.792;2023-08-30T02:21:15;29.47;;;6.97;;
7365;SDS011;3723;52.220;8.792;2023-08-30T02:23:42;26.83;;;5.57;;
7365;SDS011;3723;52.220;8.792;2023-08-30T02:26:09;28.93;;;7.00;;
7365;SDS011;3723;52.220;8.792;2023-08-30T02:28:36;24.47;;;3.80;;
7365;SDS011;3723;52.220;8.792;2023-08-30T02:31:06;25.27;;;3.90;;
7365;SDS011;3723;52.220;8.792;2023-08-30T02:33:33;22.90;;;2.93;;
7365;SDS011;3723;52.220;8.792;2023-08-30T02:36:03;27.60;;;5.63;;
7365;SDS011;3723;52.220;8.792;2023-08-30T02:38:35;33.93;;;7.90;;
7365;SDS011;3723;52.220;8.792;2023-08-30T02:41:02;29.43;;;5.97;;
7365;SDS011;3723;52.220;8.792;2023-08-30T02:43:29;25.10;;;3.87;;
7365;SDS011;3723;52.220;8.792;2023-08-30T02:46:15;25.00;;;4.20;;
7365;SDS011;3723;52.220;8.792;2023-08-30T02:48:42;24.60;;;3.63;;
7365;SDS011;3723;52.220;8.792;2023-08-30T02:51:13;29.30;;;5.83;;
7365;SDS011;3723;52.220;8.792;2023-08-30T02:53:40;24.00;;;3.40;;
7365;SDS011;3723;52.220;8.792;2023-08-30T02:56:10;26.10;;;4.23;;
7365;SDS011;3723;52.220;8.792;2023-08-30T02:58:38;24.67;;;2.93;;
7365;SDS011;3723;52.220;8.792;2023-08-30T03:01:05;23.37;;;2.63;;
7365;SDS011;3723;52.220;8.792;2023-08-30T03:03:32;23.97;;;2.57;;
7365;SDS011;3723;52.220;8.792;2023-08-30T03:06:00;23.43;;;2.10;;
7365;SDS011;3723;52.220;8.792;2023-08-30T03:08:29;24.77;;;3.03;;
7365;SDS011;3723;52.220;8.792;2023-08-30T03:10:56;24.10;;;2.10;;
7365;SDS011;3723;52.220;8.792;2023-08-30T03:13:33;25.00;;;2.90;;
7365;SDS011;3723;52.220;8.792;2023-08-30T03:16:00;24.20;;;2.33;;
7365;SDS011;3723;52.220;8.792;2023-08-30T03:18:26;24.60;;;2.00;;
7365;SDS011;3723;52.220;8.792;2023-08-30T03:20:59;24.80;;;2.00;;
7365;SDS011;3723;52.220;8.792;2023-08-30T03:23:27;24.90;;;2.23;;
7365;SDS011;3723;52.220;8.792;2023-08-30T03:25:56;30.30;;;6.00;;
7365;SDS011;3723;52.220;8.792;2023-08-30T03:28:23;26.53;;;3.60;;
7365;SDS011;3723;52.220;8.792;2023-08-30T03:30:50;24.70;;;2.37;;
7365;SDS011;3723;52.220;8.792;2023-08-30T03:33:17;25.30;;;2.10;;
7365;SDS011;3723;52.220;8.792;2023-08-30T03:35:44;29.40;;;5.87;;
7365;SDS011;3723;52.220;8.792;2023-08-30T03:38:11;27.77;;;4.17;;
7365;SDS011;3723;52.220;8.792;2023-08-30T03:40:39;24.93;;;2.73;;
7365;SDS011;3723;52.220;8.792;2023-08-30T03:43:08;23.60;;;1.70;;
7365;SDS011;3723;52.220;8.792;2023-08-30T03:45:35;23.70;;;1.47;;
7365;SDS011;3723;52.220;8.792;2023-08-30T03:48:03;23.90;;;1.60;;
7365;SDS011;3723;52.220;8.792;2023-08-30T03:50:31;25.70;;;2.30;;
7365;SDS011;3723;52.220;8.792;2023-08-30T03:52:58;25.10;;;2.07;;
7365;SDS011;3723;52.220;8.792;2023-08-30T03:55:24;26.60;;;2.10;;
7365;SDS011;3723;52.220;8.792;2023-08-30T03:57:53;28.00;;;3.20;;
7365;SDS011;3723;52.220;8.792;2023-08-30T04:00:20;26.30;;;1.63;;
7365;SDS011;3723;52.220;8.792;2023-08-30T04:02:46;27.40;;;2.30;;
7365;SDS011;3723;52.220;8.792;2023-08-30T04:05:14;27.60;;;2.43;;
7365;SDS011;3723;52.220;8.792;2023-08-30T04:07:41;26.63;;;1.73;;
7365;SDS011;3723;52.220;8.792;2023-08-30T04:10:08;26.37;;;1.83;;
7365;SDS011;3723;52.220;8.792;2023-08-30T04:12:35;27.07;;;2.50;;
7365;SDS011;3723;52.220;8.792;2023-08-30T04:15:04;28.30;;;3.30;;
7365;SDS011;3723;52.220;8.792;2023-08-30T04:17:31;27.93;;;2.30;;
7365;SDS011;3723;52.220;8.792;2023-08-30T04:19:58;26.60;;;1.80;;
7365;SDS011;3723;52.220;8.792;2023-08-30T04:22:25;27.80;;;2.20;;
7365;SDS011;3723;52.220;8.792;2023-08-30T04:24:53;26.63;;;1.87;;
7365;SDS011;3723;52.220;8.792;2023-08-30T04:27:27;28.30;;;2.70;;
7365;SDS011;3723;52.220;8.792;2023-08-30T04:29:57;26.00;;;1.60;;
7365;SDS011;3723;52.220;8.792;2023-08-30T04:32:25;26.20;;;2.17;;
7365;SDS011;3723;52.220;8.792;2023-08-30T04:34:53;26.40;;;2.50;;
7365;SDS011;3723;52.220;8.792;2023-08-30T04:37:20;27.37;;;2.40;;
7365;SDS011;3723;52.220;8.792;2023-08-30T04:39:53;25.47;;;1.70;;
7365;SDS011;3723;52.220;8.792;2023-08-30T04:46:41;25.83;;;2.20;;
7365;SDS011;3723;52.220;8.792;2023-08-30T04:53:21;24.00;;;1.70;;
7365;SDS011;3723;52.220;8.792;2023-08-30T04:56:15;25.40;;;2.80;;
7365;SDS011;3723;52.220;8.792;2023-08-30T04:59:08;24.17;;;1.53;;
7365;SDS011;3723;52.220;8.792;2023-08-30T05:02:04;24.70;;;2.50;;
7365;SDS011;3723;52.220;8.792;2023-08-30T05:04:32;28.70;;;5.30;;
7365;SDS011;3723;52.220;8.792;2023-08-30T05:07:00;23.60;;;1.77;;
7365;SDS011;3723;52.220;8.792;2023-08-30T05:09:43;25.40;;;2.20;;
7365;SDS011;3723;52.220;8.792;2023-08-30T05:12:18;24.87;;;2.33;;
7365;SDS011;3723;52.220;8.792;2023-08-30T05:14:52;23.80;;;1.83;;
7365;SDS011;3723;52.220;8.792;2023-08-30T05:17:46;26.40;;;3.90;;
7365;SDS011;3723;52.220;8.792;2023-08-30T05:20:25;26.93;;;3.17;;
7365;SDS011;3723;52.220;8.792;2023-08-30T05:23:03;24.00;;;2.03;;
7365;SDS011;3723;52.220;8.792;2023-08-30T05:25:53;24.50;;;2.13;;
7365;SDS011;3723;52.220;8.792;2023-08-30T05:28:54;24.00;;;1.60;;
7365;SDS011;3723;52.220;8.792;2023-08-30T05:31:31;26.67;;;3.13;;
7365;SDS011;3723;52.220;8.792;2023-08-30T05:34:00;24.50;;;1.73;;
7365;SDS011;3723;52.220;8.792;2023-08-30T05:36:31;25.00;;;2.00;;
7365;SDS011;3723;52.220;8.792;2023-08-30T05:38:59;26.87;;;3.13;;
7365;SDS011;3723;52.220;8.792;2023-08-30T05:41:30;29.80;;;5.30;;
7365;SDS011;3723;52.220;8.792;2023-08-30T05:43:57;28.20;;;4.67;;
7365;SDS011;3723;52.220;8.792;2023-08-30T05:46:25;27.43;;;3.70;;
7365;SDS011;3723;52.220;8.792;2023-08-30T05:48:52;30.70;;;5.83;;
7365;SDS011;3723;52.220;8.792;2023-08-30T05:51:20;27.97;;;3.90;;
7365;SDS011;3723;52.220;8.792;2023-08-30T05:53:47;30.90;;;6.13;;
7365;SDS011;3723;52.220;8.792;2023-08-30T05:56:14;31.83;;;5.97;;
7365;SDS011;3723;52.220;8.792;2023-08-30T05:58:44;29.47;;;3.93;;
7365;SDS011;3723;52.220;8.792;2023-08-30T06:01:11;26.53;;;2.20;;
7365;SDS011;3723;52.220;8.792;2023-08-30T06:03:38;30.53;;;4.53;;
7365;SDS011;3723;52.220;8.792;2023-08-30T06:06:06;30.70;;;3.07;;
7365;SDS011;3723;52.220;8.792;2023-08-30T06:08:33;31.70;;;4.40;;
7365;SDS011;3723;52.220;8.792;2023-08-30T06:11:00;33.40;;;5.40;;
7365;SDS011;3723;52.220;8.792;2023-08-30T06:13:27;35.93;;;5.40;;
7365;SDS011;3723;52.220;8.792;2023-08-30T06:15:55;34.07;;;5.90;;
7365;SDS011;3723;52.220;8.792;2023-08-30T06:18:22;34.00;;;4.53;;
7365;SDS011;3723;52.220;8.792;2023-08-30T06:20:50;34.37;;;5.30;;
7365;SDS011;3723;52.220;8.792;2023-08-30T06:23:18;32.17;;;3.20;;
7365;SDS011;3723;52.220;8.792;2023-08-30T06:25:52;35.17;;;4.47;;
7365;SDS011;3723;52.220;8.792;2023-08-30T06:28:20;36.83;;;4.30;;
7365;SDS011;3723;52.220;8.792;2023-08-30T06:30:47;33.17;;;3.13;;
7365;SDS011;3723;52.220;8.792;2023-08-30T06:33:15;35.40;;;5.00;;
7365;SDS011;3723;52.220;8.792;2023-08-30T06:35:47;32.00;;;2.60;;
7365;SDS011;3723;52.220;8.792;2023-08-30T06:38:36;32.27;;;4.90;;
7365;SDS011;3723;52.220;8.792;2023-08-30T06:41:03;31.43;;;3.93;;
7365;SDS011;3723;52.220;8.792;2023-08-30T06:43:30;32.70;;;3.07;;
7365;SDS011;3723;52.220;8.792;2023-08-30T06:45:57;31.50;;;1.97;;
7365;SDS011;3723;52.220;8.792;2023-08-30T06:48:26;36.40;;;2.80;;
7365;SDS011;3723;52.220;8.792;2023-08-30T06:50:56;40.47;;;1.70;;
7365;SDS011;3723;52.220;8.792;2023-08-30T06:53:23;46.47;;;1.90;;
7365;SDS011;3723;52.220;8.792;2023-08-30T06:55:56;53.80;;;2.57;;
7365;SDS011;3723;52.220;8.792;2023-08-30T06:58:24;52.80;;;3.53;;
7365;SDS011;3723;52.220;8.792;2023-08-30T07:00:58;57.63;;;3.47;;
7365;SDS011;3723;52.220;8.792;2023-08-30T07:03:26;57.13;;;4.00;;
7365;SDS011;3723;52.220;8.792;2023-08-30T07:05:53;59.20;;;4.67;;
7365;SDS011;3723;52.220;8.792;2023-08-30T07:08:20;62.37;;;5.63;;
7365;SDS011;3723;52.220;8.792;2023-08-30T07:10:47;63.67;;;6.63;;
7365;SDS011;3723;52.220;8.792;2023-08-30T07:13:14;70.03;;;10.27;;
7365;SDS011;3723;52.220;8.792;2023-08-30T07:15:41;80.33;;;18.80;;
7365;SDS011;3723;52.220;8.792;2023-08-30T07:18:09;77.47;;;9.17;;
7365;SDS011;3723;52.220;8.792;2023-08-30T07:20:38;82.97;;;18.50;;
7365;SDS011;3723;52.220;8.792;2023-08-30T07:23:05;88.17;;;35.70;;
7365;SDS011;3723;52.220;8.792;2023-08-30T07:25:32;84.50;;;34.20;;
7365;SDS011;3723;52.220;8.792;2023-08-30T07:28:01;74.40;;;16.40;;
7365;SDS011;3723;52.220;8.792;2023-08-30T07:30:28;84.70;;;34.20;;
7365;SDS011;3723;52.220;8.792;2023-08-30T07:32:55;63.20;;;5.00;;
7365;SDS011;3723;52.220;8.792;2023-08-30T07:35:22;65.90;;;5.03;;
7365;SDS011;3723;52.220;8.792;2023-08-30T07:37:51;65.40;;;4.47;;
7365;SDS011;3723;52.220;8.792;2023-08-30T07:40:26;77.47;;;14.40;;
7365;SDS011;3723;52.220;8.792;2023-08-30T07:42:58;78.47;;;14.50;;
7365;SDS011;3723;52.220;8.792;2023-08-30T07:48:19;90.80;;;27.93;;
7365;SDS011;3723;52.220;8.792;2023-08-30T07:50:47;107.37;;;49.67;;
7365;SDS011;3723;52.220;8.792;2023-08-30T08:26:02;152.80;;;108.47;;
7365;SDS011;3723;52.220;8.792;2023-08-30T08:28:30;183.77;;;152.20;;
7365;SDS011;3723;52.220;8.792;2023-08-30T08:30:59;264.13;;;239.77;;
7365;SDS011;3723;52.220;8.792;2023-08-30T08:33:33;208.93;;;186.67;;
7365;SDS011;3723;52.220;8.792;2023-08-30T08:39:01;375.97;;;345.03;;
7365;SDS011;3723;52.220;8.792;2023-08-30T08:48:06;484.00;;;446.33;;
7365;SDS011;3723;52.220;8.792;2023-08-30T08:50:33;383.27;;;352.33;;
7365;SDS011;3723;52.220;8.792;2023-08-30T08:53:07;413.93;;;380.80;;
7365;SDS011;3723;52.220;8.792;2023-08-30T08:55:43;452.77;;;416.47;;
7365;SDS011;3723;52.220;8.792;2023-08-30T08:58:18;232.00;;;209.97;;
7365;SDS011;3723;52.220;8.792;2023-08-30T09:01:06;120.23;;;62.37;;
7365;SDS011;3723;52.220;8.792;2023-08-30T09:06:51;105.80;;;46.77;;
7365;SDS011;3723;52.220;8.792;2023-08-30T09:09:22;103.63;;;41.73;;
7365;SDS011;3723;52.220;8.792;2023-08-30T09:11:53;110.20;;;47.00;;
7365;SDS011;3723;52.220;8.792;2023-08-30T09:14:20;143.67;;;100.50;;
7365;SDS011;3723;52.220;8.792;2023-08-30T09:16:58;109.93;;;53.60;;
7365;SDS011;3723;52.220;8.792;2023-08-30T09:19:27;93.27;;;26.70;;
7365;SDS011;3723;52.220;8.792;2023-08-30T09:21:55;86.37;;;10.20;;
7365;SDS011;3723;52.220;8.792;2023-08-30T09:24:23;82.70;;;7.80;;
7365;SDS011;3723;52.220;8.792;2023-08-30T09:26:51;84.47;;;10.47;;
7365;SDS011;3723;52.220;8.792;2023-08-30T09:29:24;88.73;;;13.53;;
7365;SDS011;3723;52.220;8.792;2023-08-30T09:31:51;88.80;;;12.00;;
7365;SDS011;3723;52.220;8.792;2023-08-30T09:34:23;93.73;;;13.47;;
7365;SDS011;3723;52.220;8.792;2023-08-30T09:36:56;95.20;;;15.57;;
7365;SDS011;3723;52.220;8.792;2023-08-30T09:39:48;90.60;;;14.50;;
7365;SDS011;3723;52.220;8.792;2023-08-30T09:42:33;89.10;;;13.53;;
7365;SDS011;3723;52.220;8.792;2023-08-30T09:45:08;89.07;;;9.03;;
7365;SDS011;3723;52.220;8.792;2023-08-30T09:47:46;91.17;;;10.27;;
7365;SDS011;3723;52.220;8.792;2023-08-30T09:50:19;89.80;;;8.10;;
7365;SDS011;3723;52.220;8.792;2023-08-30T09:52:59;89.17;;;9.40;;
7365;SDS011;3723;52.220;8.792;2023-08-30T09:55:57;87.40;;;8.20;;
7365;SDS011;3723;52.220;8.792;2023-08-30T09:58:27;91.73;;;10.17;;
7365;SDS011;3723;52.220;8.792;2023-08-30T10:00:55;91.20;;;11.13;;
7365;SDS011;3723;52.220;8.792;2023-08-30T10:06:50;106.13;;;26.83;;
7365;SDS011;3723;52.220;8.792;2023-08-30T10:09:26;90.40;;;8.77;;
7365;SDS011;3723;52.220;8.792;2023-08-30T10:11:57;86.97;;;8.00;;
7365;SDS011;3723;52.220;8.792;2023-08-30T10:14:31;86.40;;;7.47;;
7365;SDS011;3723;52.220;8.792;2023-08-30T10:17:00;87.37;;;7.70;;
7365;SDS011;3723;52.220;8.792;2023-08-30T10:19:29;90.90;;;7.40;;
7365;SDS011;3723;52.220;8.792;2023-08-30T10:22:00;105.13;;;22.03;;
7365;SDS011;3723;52.220;8.792;2023-08-30T10:24:30;104.37;;;31.23;;
7365;SDS011;3723;52.220;8.792;2023-08-30T10:27:11;135.17;;;76.60;;
7365;SDS011;3723;52.220;8.792;2023-08-30T10:32:40;167.87;;;138.03;;
7365;SDS011;3723;52.220;8.792;2023-08-30T10:35:14;97.87;;;21.63;;
7365;SDS011;3723;52.220;8.792;2023-08-30T10:38:23;107.83;;;29.87;;
7365;SDS011;3723;52.220;8.792;2023-08-30T10:44:03;133.67;;;78.20;;
7365;SDS011;3723;52.220;8.792;2023-08-30T10:46:42;124.80;;;59.90;;
7365;SDS011;3723;52.220;8.792;2023-08-30T10:49:18;235.90;;;213.93;;
7365;SDS011;3723;52.220;8.792;2023-08-30T10:51:53;242.77;;;220.20;;
7365;SDS011;3723;52.220;8.792;2023-08-30T10:54:36;250.47;;;227.43;;
7365;SDS011;3723;52.220;8.792;2023-08-30T10:57:04;209.97;;;188.37;;
7365;SDS011;3723;52.220;8.792;2023-08-30T10:59:31;220.57;;;199.13;;
7365;SDS011;3723;52.220;8.792;2023-08-30T11:02:05;338.90;;;310.43;;
7365;SDS011;3723;52.220;8.792;2023-08-30T11:04:33;222.40;;;199.93;;
7365;SDS011;3723;52.220;8.792;2023-08-30T11:07:07;251.23;;;227.27;;
7365;SDS011;3723;52.220;8.792;2023-08-30T11:09:49;99.70;;;24.63;;
7365;SDS011;3723;52.220;8.792;2023-08-30T11:12:42;97.57;;;10.97;;
7365;SDS011;3723;52.220;8.792;2023-08-30T11:18:33;81.27;;;6.77;;
7365;SDS011;3723;52.220;8.792;2023-08-30T11:21:17;85.50;;;14.93;;
7365;SDS011;3723;52.220;8.792;2023-08-30T11:23:46;93.13;;;24.70;;
7365;SDS011;3723;52.220;8.792;2023-08-30T11:26:14;111.83;;;54.30;;
7365;SDS011;3723;52.220;8.792;2023-08-30T11:31:51;202.53;;;182.07;;
7365;SDS011;3723;52.220;8.792;2023-08-30T11:37:50;353.97;;;324.70;;
7365;SDS011;3723;52.220;8.792;2023-08-30T11:40:18;132.20;;;69.73;;
7365;SDS011;3723;52.220;8.792;2023-08-30T11:50:41;116.30;;;77.50;;
7365;SDS011;3723;52.220;8.792;2023-08-30T11:53:14;117.33;;;76.20;;
7365;SDS011;3723;52.220;8.792;2023-08-30T12:10:25;95.20;;;28.80;;
7365;SDS011;3723;52.220;8.792;2023-08-30T12:12:54;104.53;;;46.53;;
7365;SDS011;3723;52.220;8.792;2023-08-30T12:15:32;88.40;;;22.73;;
7365;SDS011;3723;52.220;8.792;2023-08-30T12:18:05;80.47;;;8.43;;
7365;SDS011;3723;52.220;8.792;2023-08-30T12:23:36;97.87;;;41.17;;
7365;SDS011;3723;52.220;8.792;2023-08-30T12:26:20;89.30;;;27.20;;
7365;SDS011;3723;52.220;8.792;2023-08-30T12:29:45;80.27;;;10.27;;
7365;SDS011;3723;52.220;8.792;2023-08-30T12:32:27;76.90;;;4.07;;
7365;SDS011;3723;52.220;8.792;2023-08-30T12:35:10;79.23;;;9.20;;
7365;SDS011;3723;52.220;8.792;2023-08-30T12:37:37;76.40;;;4.40;;
7365;SDS011;3723;52.220;8.792;2023-08-30T12:40:17;84.10;;;17.43;;
7365;SDS011;3723;52.220;8.792;2023-08-30T12:45:41;78.00;;;5.40;;
7365;SDS011;3723;52.220;8.792;2023-08-30T12:48:24;88.63;;;27.80;;
7365;SDS011;3723;52.220;8.792;2023-08-30T12:50:52;82.63;;;14.37;;
7365;SDS011;3723;52.220;8.792;2023-08-30T12:53:19;86.03;;;20.90;;
7365;SDS011;3723;52.220;8.792;2023-08-30T12:59:34;256.27;;;232.93;;
7365;SDS011;3723;52.220;8.792;2023-08-30T13:02:02;303.80;;;277.83;;
7365;SDS011;3723;52.220;8.792;2023-08-30T13:04:29;233.57;;;211.93;;
7365;SDS011;3723;52.220;8.792;2023-08-30T13:06:59;407.83;;;375.47;;
7365;SDS011;3723;52.220;8.792;2023-08-30T13:09:49;288.30;;;263.30;;
7365;SDS011;3723;52.220;8.792;2023-08-30T13:12:22;201.77;;;182.03;;
7365;SDS011;3723;52.220;8.792;2023-08-30T13:14:52;332.27;;;304.53;;
7365;SDS011;3723;52.220;8.792;2023-08-30T13:17:23;370.73;;;341.87;;
7365;SDS011;3723;52.220;8.792;2023-08-30T13:20:13;319.37;;;292.77;;
7365;SDS011;3723;52.220;8.792;2023-08-30T13:22:49;386.00;;;355.73;;
7365;SDS011;3723;52.220;8.792;2023-08-30T13:25:16;172.03;;;150.27;;
7365;SDS011;3723;52.220;8.792;2023-08-30T13:27:45;154.10;;;127.37;;
7365;SDS011;3723;52.220;8.792;2023-08-30T13:33:08;132.23;;;58.93;;
7365;SDS011;3723;52.220;8.792;2023-08-30T13:35:48;128.63;;;60.93;;
7365;SDS011;3723;52.220;8.792;2023-08-30T13:38:19;102.20;;;18.20;;
7365;SDS011;3723;52.220;8.792;2023-08-30T13:40:57;106.60;;;31.03;;
7365;SDS011;3723;52.220;8.792;2023-08-30T13:43:33;117.10;;;51.90;;
7365;SDS011;3723;52.220;8.792;2023-08-30T13:46:02;106.63;;;47.07;;
7365;SDS011;3723;52.220;8.792;2023-08-30T13:48:53;85.87;;;21.43;;
7365;SDS011;3723;52.220;8.792;2023-08-30T13:51:27;78.50;;;11.13;;
7365;SDS011;3723;52.220;8.792;2023-08-30T13:53:58;68.00;;;6.63;;
7365;SDS011;3723;52.220;8.792;2023-08-30T14:00:14;55.43;;;3.73;;
7365;SDS011;3723;52.220;8.792;2023-08-30T14:07:03;54.37;;;6.97;;
7365;SDS011;3723;52.220;8.792;2023-08-30T14:12:09;64.20;;;7.57;;
7365;SDS011;3723;52.220;8.792;2023-08-30T14:18:21;61.33;;;6.70;;
7365;SDS011;3723;52.220;8.792;2023-08-30T14:24:24;49.20;;;6.73;;
7365;SDS011;3723;52.220;8.792;2023-08-30T14:27:00;50.27;;;7.50;;
7365;SDS011;3723;52.220;8.792;2023-08-30T14:29:30;37.90;;;4.33;;
7365;SDS011;3723;52.220;8.792;2023-08-30T14:31:57;39.43;;;7.13;;
7365;SDS011;3723;52.220;8.792;2023-08-30T14:34:30;35.73;;;6.07;;
7365;SDS011;3723;52.220;8.792;2023-08-30T14:37:00;36.00;;;7.03;;
7365;SDS011;3723;52.220;8.792;2023-08-30T14:39:27;32.20;;;4.83;;
7365;SDS011;3723;52.220;8.792;2023-08-30T14:42:33;40.17;;;8.30;;
7365;SDS011;3723;52.220;8.792;2023-08-30T14:48:22;34.97;;;5.27;;
7365;SDS011;3723;52.220;8.792;2023-08-30T14:54:23;36.03;;;7.37;;
7365;SDS011;3723;52.220;8.792;2023-08-30T14:56:55;35.10;;;7.70;;
7365;SDS011;3723;52.220;8.792;2023-08-30T15:10:03;38.90;;;8.23;;
7365;SDS011;3723;52.220;8.792;2023-08-30T18:01:55;41.23;;;6.70;;
7365;SDS011;3723;52.220;8.792;2023-08-30T18:07:49;35.77;;;4.10;;
7365;SDS011;3723;52.220;8.792;2023-08-30T18:20:30;37.77;;;3.97;;
7365;SDS011;3723;52.220;8.792;2023-08-30T18:27:01;36.67;;;5.80;;
7365;SDS011;3723;52.220;8.792;2023-08-30T19:04:46;34.13;;;4.40;;
7365;SDS011;3723;52.220;8.792;2023-08-30T19:07:15;36.07;;;5.70;;
7365;SDS011;3723;52.220;8.792;2023-08-30T19:10:11;39.17;;;6.40;;
7365;SDS011;3723;52.220;8.792;2023-08-30T19:16:10;35.77;;;6.00;;
7365;SDS011;3723;52.220;8.792;2023-08-30T19:18:51;32.63;;;3.57;;
7365;SDS011;3723;52.220;8.792;2023-08-30T19:21:31;33.10;;;4.90;;
7365;SDS011;3723;52.220;8.792;2023-08-30T19:24:45;36.30;;;6.97;;
7365;SDS011;3723;52.220;8.792;2023-08-30T19:34:06;33.27;;;4.57;;
7365;SDS011;3723;52.220;8.792;2023-08-30T20:50:01;40.23;;;7.37;;
7365;SDS011;3723;52.220;8.792;2023-08-30T20:52:52;43.47;;;9.93;;
7365;SDS011;3723;52.220;8.792;2023-08-30T20:55:53;44.37;;;9.13;;
7365;SDS011;3723;52.220;8.792;2023-08-30T20:58:23;40.40;;;9.50;;
7365;SDS011;3723;52.220;8.792;2023-08-30T21:19:49;38.67;;;8.03;;
7365;SDS011;3723;52.220;8.792;2023-08-30T21:22:44;37.00;;;7.77;;
7365;SDS011;3723;52.220;8.792;2023-08-30T21:25:15;37.40;;;9.87;;
7365;SDS011;3723;52.220;8.792;2023-08-30T21:28:00;38.00;;;8.50;;
7365;SDS011;3723;52.220;8.792;2023-08-30T21:35:00;38.10;;;6.10;;
7365;SDS011;3723;52.220;8.792;2023-08-30T21:47:50;35.90;;;7.60;;
7365;SDS011;3723;52.220;8.792;2023-08-30T22:20:24;27.73;;;4.80;;
7365;SDS011;3723;52.220;8.792;2023-08-30T22:30:04;29.60;;;3.97;;
7365;SDS011;3723;52.220;8.792;2023-08-30T22:33:15;31.10;;;5.83;;
7365;SDS011;3723;52.220;8.792;2023-08-30T22:35:48;32.20;;;5.90;;
7365;SDS011;3723;52.220;8.792;2023-08-30T22:38:37;31.00;;;5.60;;
7365;SDS011;3723;52.220;8.792;2023-08-30T22:48:18;31.20;;;7.53;;
7365;SDS011;3723;52.220;8.792;2023-08-30T22:50:50;25.27;;;3.63;;
7365;SDS011;3723;52.220;8.792;2023-08-30T22:53:59;28.63;;;5.67;;
7365;SDS011;3723;52.220;8.792;2023-08-30T23:06:27;28.37;;;5.60;;
7365;SDS011;3723;52.220;8.792;2023-08-30T23:19:05;28.10;;;5.80;;
7365;SDS011;3723;52.220;8.792;2023-08-30T23:25:01;28.70;;;6.47;;
7365;SDS011;3723;52.220;8.792;2023-08-30T23:31:11;40.60;;;9.93;;
7365;SDS011;3723;52.220;8.792;2023-08-30T23:36:44;28.00;;;5.90;;
7365;SDS011;3723;52.220;8.792;2023-08-30T23:39:13;30.13;;;5.90;;
7365;SDS011;3723;52.220;8.792;2023-08-30T23:41:44;26.90;;;6.37;;
7365;SDS011;3723;52.220;8.792;2023-08-30T23:47:20;32.00;;;7.70;;
7365;SDS011;3723;52.220;8.792;2023-08-30T23:53:09;32.57;;;6.30;;
